Time;durP1;ratioP1;P1;durP2;ratioP2;P2;SDS_P1;SDS_P2;PMS_P1;PMS_P2;Temp;Humidity;BMP_temperature;BMP_pressure;BME280_temperature;BME280_humidity;BME280_pressure;Samples;Min_cycle;Max_cycle;Signal;HPM_P1;HPM_P2
2020/12/07 00:01:48;;;;;;;1.33;1.23;;;;;;;8.62;89.92;99450.75;5073270;28;20437;-66
2020/12/07 00:04:14;;;;;;;2.47;2.27;;;;;;;8.61;89.32;99446.47;5073052;28;20522;-67
2020/12/07 00:06:40;;;;;;;1.50;1.07;;;;;;;8.62;89.11;99444.56;5072943;28;21032;-67
2020/12/07 00:09:07;;;;;;;2.30;0.87;;;;;;;8.63;89.06;99449.63;5073120;28;20875;-66
2020/12/07 00:11:34;;;;;;;1.23;1.17;;;;;;;8.64;89.31;99445.84;5072834;28;20822;-66
2020/12/07 00:14:01;;;;;;;6.23;1.43;;;;;;;8.63;89.77;99444.22;5072817;28;20511;-67
2020/12/07 00:16:27;;;;;;;1.20;0.80;;;;;;;8.61;89.91;99451.84;5073073;28;20942;-67
2020/12/07 00:18:53;;;;;;;2.33;0.87;;;;;;;8.64;90.10;99445.03;5073386;28;20515;-68
2020/12/07 00:21:20;;;;;;;0.63;0.63;;;;;;;8.60;90.07;99455.69;5072843;28;20434;-67
2020/12/07 00:23:46;;;;;;;1.17;1.03;;;;;;;8.62;89.98;99466.94;5073278;28;20994;-67
2020/12/07 00:26:12;;;;;;;1.73;1.00;;;;;;;8.56;90.26;99454.72;5073664;28;20494;-67
2020/12/07 00:28:40;;;;;;;3.30;2.80;;;;;;;8.55;90.22;99445.03;5072621;28;20437;-68
2020/12/07 00:31:06;;;;;;;0.60;0.60;;;;;;;8.54;90.18;99441.53;5073126;28;20485;-67
2020/12/07 00:33:33;;;;;;;1.57;1.47;;;;;;;8.55;90.23;99437.72;5072979;28;20462;-67
2020/12/07 00:36:00;;;;;;;0.60;0.60;;;;;;;8.51;90.31;99430.56;5072892;28;20487;-68
2020/12/07 00:38:26;;;;;;;1.93;1.40;;;;;;;8.48;90.50;99431.19;5072919;28;20441;-68
2020/12/07 00:40:52;;;;;;;0.97;0.97;;;;;;;8.48;90.65;99425.81;5072894;28;20437;-68
2020/12/07 00:43:18;;;;;;;6.40;1.63;;;;;;;8.50;90.31;99420.88;5073026;28;20491;-68
2020/12/07 00:45:45;;;;;;;5.60;1.80;;;;;;;8.44;90.53;99419.44;5072707;28;20441;-68
2020/12/07 00:48:11;;;;;;;1.43;1.33;;;;;;;8.43;90.35;99415.16;5072645;28;20508;-68
2020/12/07 00:50:37;;;;;;;2.73;2.10;;;;;;;8.42;90.14;99408.97;5072847;28;20517;-67
2020/12/07 00:53:05;;;;;;;2.30;0.57;;;;;;;8.38;89.79;99412.63;5074396;28;20457;-68
2020/12/07 00:55:32;;;;;;;0.70;0.50;;;;;;;8.32;89.76;99412.75;5076026;28;20491;-67
2020/12/07 00:57:58;;;;;;;8.33;0.97;;;;;;;8.29;90.40;99410.66;5076304;28;20433;-67
2020/12/07 01:00:24;;;;;;;1.53;1.20;;;;;;;8.34;90.70;99412.41;5076310;28;20429;-67
2020/12/07 01:02:51;;;;;;;2.30;2.10;;;;;;;8.33;90.35;99411.63;5075798;28;20493;-67
2020/12/07 01:05:17;;;;;;;1.33;1.23;;;;;;;8.31;90.60;99405.75;5076089;28;20499;-67
2020/12/07 01:07:44;;;;;;;5.37;2.17;;;;;;;8.35;90.45;99404.00;5076202;28;21025;-67
2020/12/07 01:10:11;;;;;;;0.60;0.60;;;;;;;8.38;90.42;99401.81;5075667;28;20558;-68
2020/12/07 01:12:37;;;;;;;2.03;1.80;;;;;;;8.39;90.57;99416.91;5075926;28;20511;-67
2020/12/07 01:15:03;;;;;;;7.43;0.83;;;;;;;8.44;90.61;99411.34;5076118;28;21012;-68
2020/12/07 01:17:30;;;;;;;3.93;0.80;;;;;;;8.44;90.61;99404.03;5076482;28;20437;-68
2020/12/07 01:19:57;;;;;;;1.37;1.27;;;;;;;8.49;90.24;99405.78;5075990;28;20506;-67
2020/12/07 01:24:50;;;;;;;0.63;0.63;;;;;;;8.50;90.28;99392.00;5095076;22;20485;-72
2020/12/07 01:27:16;;;;;;;1.87;1.23;;;;;;;8.49;90.34;99392.31;5075052;28;20514;-72
2020/12/07 01:29:42;;;;;;;0.60;0.60;;;;;;;8.51;90.07;99382.78;5075251;28;20904;-73
2020/12/07 01:32:08;;;;;;;1.23;1.13;;;;;;;8.53;89.77;99383.25;5075172;28;20808;-72
2020/12/07 01:34:34;;;;;;;0.77;0.53;;;;;;;8.58;89.76;99376.91;5075542;28;20526;-72
2020/12/07 01:37:01;;;;;;;3.73;3.10;;;;;;;8.60;89.54;99380.09;5074854;28;20457;-71
2020/12/07 01:39:27;;;;;;;1.33;0.87;;;;;;;8.61;89.39;99387.06;5075399;28;20507;-72
2020/12/07 01:41:54;;;;;;;1.77;1.43;;;;;;;8.63;89.32;99381.34;5075096;28;20441;-68
2020/12/07 01:44:20;;;;;;;4.13;1.20;;;;;;;8.64;89.06;99372.97;5075294;28;20794;-73
2020/12/07 01:46:46;;;;;;;4.30;1.40;;;;;;;8.63;88.38;99382.13;5075505;28;20437;-72
2020/12/07 01:49:13;;;;;;;0.93;0.87;;;;;;;8.62;88.27;99379.78;5074933;28;20959;-72
2020/12/07 01:51:39;;;;;;;2.27;1.40;;;;;;;8.61;88.28;99370.88;5075399;28;20538;-72
2020/12/07 01:54:06;;;;;;;2.70;2.03;;;;;;;8.57;87.84;99369.94;5075107;28;20874;-72
2020/12/07 01:56:32;;;;;;;0.77;0.73;;;;;;;8.52;88.35;99372.78;5075113;28;20441;-72
2020/12/07 01:58:59;;;;;;;5.27;3.03;;;;;;;8.50;88.88;99369.59;5074720;28;20822;-72
2020/12/07 02:01:27;;;;;;;2.53;1.23;;;;;;;8.57;88.43;99365.31;5074756;28;20919;-72
2020/12/07 02:03:53;;;;;;;2.77;2.00;;;;;;;8.59;88.46;99362.31;5074315;28;20502;-72
2020/12/07 02:06:19;;;;;;;1.30;1.13;;;;;;;8.57;88.34;99359.13;5074568;28;20503;-72
2020/12/07 02:08:48;;;;;;;1.20;1.10;;;;;;;8.58;88.75;99355.31;5074898;28;20480;-72
2020/12/07 02:11:15;;;;;;;1.20;1.03;;;;;;;8.55;88.83;99351.38;5074767;28;20566;-72
2020/12/07 02:13:41;;;;;;;2.10;0.87;;;;;;;8.56;88.73;99344.06;5074425;28;20453;-72
2020/12/07 02:16:07;;;;;;;2.10;1.90;;;;;;;8.58;88.73;99350.72;5074387;28;20939;-72
2020/12/07 02:18:34;;;;;;;2.83;0.87;;;;;;;8.57;88.82;99345.63;5074692;28;20458;-72
2020/12/07 02:21:01;;;;;;;3.03;2.53;;;;;;;8.57;88.68;99337.53;5074619;28;20506;-72
2020/12/07 02:23:27;;;;;;;1.37;0.90;;;;;;;8.57;88.67;99349.13;5074069;28;21047;-72
2020/12/07 02:25:53;;;;;;;2.53;2.33;;;;;;;8.56;88.79;99352.16;5074224;28;20495;-72
2020/12/07 02:28:19;;;;;;;1.80;1.70;;;;;;;8.54;88.64;99346.25;5074463;28;20441;-72
2020/12/07 02:30:46;;;;;;;1.13;1.07;;;;;;;8.56;88.59;99333.25;5074392;28;20516;-72
2020/12/07 02:33:12;;;;;;;4.50;1.13;;;;;;;8.54;88.55;99335.47;5073978;28;20926;-72
2020/12/07 02:35:38;;;;;;;1.77;1.67;;;;;;;8.55;88.68;99334.38;5074331;28;20442;-72
2020/12/07 02:38:05;;;;;;;1.00;0.80;;;;;;;8.54;88.53;99339.00;5074252;28;20469;-72
2020/12/07 02:40:31;;;;;;;1.53;1.40;;;;;;;8.56;88.61;99333.25;5074201;28;20441;-72
2020/12/07 02:42:57;;;;;;;2.83;2.37;;;;;;;8.50;88.04;99329.94;5074075;28;20486;-72
2020/12/07 02:45:23;;;;;;;2.33;1.53;;;;;;;8.44;87.80;99333.09;5074114;28;20471;-72
2020/12/07 02:47:49;;;;;;;1.33;1.10;;;;;;;8.42;87.48;99322.63;5073799;28;20876;-72
2020/12/07 02:50:16;;;;;;;1.67;1.57;;;;;;;8.37;87.88;99333.59;5073924;28;21083;-72
2020/12/07 02:52:42;;;;;;;1.93;1.83;;;;;;;8.30;87.51;99336.72;5073933;28;20433;-72
2020/12/07 02:55:10;;;;;;;0.97;0.90;;;;;;;8.32;87.99;99329.13;5073654;28;20445;-72
2020/12/07 02:57:37;;;;;;;3.57;2.17;;;;;;;8.27;88.60;99326.53;5073631;28;20859;-72
2020/12/07 03:00:06;;;;;;;3.03;2.73;;;;;;;8.35;88.52;99319.56;5073506;28;20487;-72
2020/12/07 03:02:33;;;;;;;1.20;1.10;;;;;;;8.38;88.36;99323.59;5073748;28;20528;-72
2020/12/07 03:05:00;;;;;;;1.70;1.37;;;;;;;8.39;88.28;99330.56;5073747;28;20539;-72
2020/12/07 03:07:26;;;;;;;5.80;2.50;;;;;;;8.49;87.75;99325.63;5073768;28;20844;-72
2020/12/07 03:09:52;;;;;;;3.30;1.27;;;;;;;8.44;87.70;99328.50;5073654;28;20563;-73
2020/12/07 03:12:19;;;;;;;2.47;1.43;;;;;;;8.46;87.64;99328.19;5073308;28;20510;-72
2020/12/07 03:14:46;;;;;;;1.53;0.97;;;;;;;8.50;87.36;99324.53;5073503;28;20511;-73
2020/12/07 03:17:12;;;;;;;7.50;2.13;;;;;;;8.54;87.15;99341.69;5072366;28;20996;-73
2020/12/07 03:19:38;;;;;;;1.53;1.20;;;;;;;8.58;86.89;99329.13;5073554;28;20469;-72
2020/12/07 03:22:04;;;;;;;1.53;0.97;;;;;;;8.57;86.79;99327.53;5073528;28;20468;-72
2020/12/07 03:24:30;;;;;;;1.20;1.10;;;;;;;8.58;86.50;99328.31;5073364;28;20534;-72
2020/12/07 03:26:57;;;;;;;0.67;0.60;;;;;;;8.55;86.49;99328.97;5073514;28;20437;-72
2020/12/07 03:29:24;;;;;;;2.60;1.00;;;;;;;8.61;86.33;99332.31;5073713;28;20438;-72
2020/12/07 03:31:50;;;;;;;3.23;1.53;;;;;;;8.57;86.41;99332.16;5073358;28;20904;-73
2020/12/07 03:34:17;;;;;;;0.77;0.77;;;;;;;8.61;85.75;99333.09;5073293;28;20888;-72
2020/12/07 03:36:43;;;;;;;2.53;1.57;;;;;;;8.65;85.24;99334.06;5073400;28;20430;-72
2020/12/07 03:39:10;;;;;;;0.70;0.70;;;;;;;8.63;85.28;99332.78;5073330;28;20500;-73
2020/12/07 03:41:37;;;;;;;1.17;1.07;;;;;;;8.64;85.07;99337.88;5072971;28;20499;-73
2020/12/07 03:44:03;;;;;;;0.87;0.87;;;;;;;8.64;84.95;99328.97;5073241;28;20884;-73
2020/12/07 03:46:30;;;;;;;7.40;1.83;;;;;;;8.56;84.67;99328.66;5073205;28;20495;-72
2020/12/07 03:48:56;;;;;;;0.50;0.40;;;;;;;8.45;85.72;99326.59;5073207;28;20437;-73
2020/12/07 03:51:22;;;;;;;2.57;1.20;;;;;;;8.49;85.37;99317.53;5072812;28;20485;-73
2020/12/07 03:53:48;;;;;;;9.43;2.30;;;;;;;8.51;85.79;99318.03;5072805;28;20978;-72
2020/12/07 03:56:15;;;;;;;1.93;1.73;;;;;;;8.58;85.19;99318.31;5073133;28;20923;-73
2020/12/07 03:58:41;;;;;;;5.50;1.13;;;;;;;8.54;85.54;99316.56;5073124;28;20425;-72
2020/12/07 04:01:09;;;;;;;0.87;0.87;;;;;;;8.56;85.50;99315.16;5073135;28;20433;-72
2020/12/07 04:03:37;;;;;;;7.53;1.97;;;;;;;8.62;84.83;99323.09;5073037;28;20817;-73
2020/12/07 04:06:07;;;;;;;0.83;0.70;;;;;;;8.55;85.34;99324.38;5072736;28;20926;-73
2020/12/07 04:08:33;;;;;;;0.70;0.70;;;;;;;8.53;85.16;99331.19;5072717;28;20931;-73
2020/12/07 04:10:59;;;;;;;3.90;2.23;;;;;;;8.51;85.21;99328.03;5072941;28;20838;-72
2020/12/07 04:13:25;;;;;;;0.60;0.60;;;;;;;8.54;85.34;99327.38;5072621;28;20454;-73
2020/12/07 04:15:51;;;;;;;1.33;0.60;;;;;;;8.54;85.09;99332.78;5072987;28;20812;-73
2020/12/07 04:18:18;;;;;;;0.77;0.77;;;;;;;8.55;84.86;99328.97;5072912;28;20434;-72
2020/12/07 04:20:45;;;;;;;5.20;1.20;;;;;;;8.48;85.08;99320.56;5072654;28;20456;-73
2020/12/07 04:23:11;;;;;;;5.80;1.50;;;;;;;8.46;85.14;99310.09;5072611;28;20477;-74
2020/12/07 04:25:37;;;;;;;2.20;2.10;;;;;;;8.46;85.12;99312.78;5072555;28;20786;-71
2020/12/07 04:28:03;;;;;;;1.00;0.93;;;;;;;8.47;85.19;99311.69;5074658;28;20440;-72
2020/12/07 04:30:30;;;;;;;2.00;1.50;;;;;;;8.45;84.92;99313.09;5076661;28;20489;-72
2020/12/07 04:32:56;;;;;;;1.43;1.27;;;;;;;8.38;84.42;99328.97;5076323;28;20493;-72
2020/12/07 04:35:22;;;;;;;1.23;1.10;;;;;;;8.39;84.68;99315.16;5076355;28;20437;-72
2020/12/07 04:37:49;;;;;;;2.67;1.53;;;;;;;8.40;84.69;99313.25;5076615;28;20441;-72
2020/12/07 04:40:15;;;;;;;0.40;0.40;;;;;;;8.35;84.21;99314.97;5076518;28;20433;-72
2020/12/07 04:42:42;;;;;;;7.23;2.20;;;;;;;8.36;84.08;99313.06;5076098;28;20995;-72
2020/12/07 04:45:09;;;;;;;1.13;1.03;;;;;;;8.36;84.26;99321.16;5076360;28;20487;-72
2020/12/07 04:47:37;;;;;;;0.80;0.80;;;;;;;8.38;84.40;99316.28;5076113;28;20934;-71
2020/12/07 04:50:05;;;;;;;2.80;1.73;;;;;;;8.44;84.65;99322.31;5075980;28;20897;-71
2020/12/07 04:52:32;;;;;;;1.13;1.03;;;;;;;8.41;84.54;99318.34;5076232;28;20517;-72
2020/12/07 04:55:02;;;;;;;1.00;0.80;;;;;;;8.49;84.54;99322.13;5076274;28;20433;-72
2020/12/07 04:57:29;;;;;;;6.77;1.07;;;;;;;8.49;84.42;99324.84;5075900;28;20524;-72
2020/12/07 04:59:57;;;;;;;3.17;1.00;;;;;;;8.50;84.14;99321.03;5076166;28;20441;-72
2020/12/07 05:02:23;;;;;;;2.83;2.60;;;;;;;8.47;83.74;99322.47;5076125;28;20463;-72
2020/12/07 05:04:49;;;;;;;4.37;4.07;;;;;;;8.50;83.92;99326.41;5076030;28;20461;-72
2020/12/07 05:07:16;;;;;;;1.07;0.97;;;;;;;8.53;83.80;99331.19;5075715;28;20487;-70
2020/12/07 05:09:42;;;;;;;1.40;0.90;;;;;;;8.55;83.52;99332.47;5075697;28;21007;-70
2020/12/07 05:12:15;;;;;;;1.73;1.63;;;;;;;8.55;83.46;99337.09;5075952;28;20471;-70
2020/12/07 05:14:41;;;;;;;3.13;1.23;;;;;;;8.62;82.98;99339.28;5075927;28;20461;-70
2020/12/07 05:17:07;;;;;;;1.37;0.80;;;;;;;8.66;82.61;99338.31;5075954;28;20495;-71
2020/12/07 05:19:34;;;;;;;1.33;1.10;;;;;;;8.63;83.14;99352.44;5075576;28;20487;-70
2020/12/07 05:22:00;;;;;;;2.33;2.13;;;;;;;8.57;82.79;99356.44;5075505;28;20433;-70
2020/12/07 05:24:27;;;;;;;2.87;1.20;;;;;;;8.64;82.41;99359.47;5075371;28;20465;-71
2020/12/07 05:26:54;;;;;;;1.97;1.13;;;;;;;8.64;82.22;99351.38;5075733;28;20490;-71
2020/12/07 05:29:31;;;;;;;12.63;2.77;;;;;;;8.64;81.67;99348.66;5075639;28;20486;-71
2020/12/07 05:31:58;;;;;;;2.50;1.33;;;;;;;8.51;82.04;99355.03;5075553;28;20519;-71
2020/12/07 05:34:25;;;;;;;1.10;0.90;;;;;;;8.48;82.16;99358.34;5075252;28;20465;-71
2020/12/07 05:36:55;;;;;;;2.03;0.70;;;;;;;8.47;82.14;99360.25;5075517;28;20918;-71
2020/12/07 05:39:24;;;;;;;1.03;0.97;;;;;;;8.47;82.01;99352.16;5074384;28;20440;-71
2020/12/07 05:41:51;;;;;;;4.33;3.30;;;;;;;8.50;81.75;99359.63;5075442;28;20457;-71
2020/12/07 05:44:19;;;;;;;1.07;0.80;;;;;;;8.51;82.22;99355.03;5075312;28;20511;-71
2020/12/07 05:46:47;;;;;;;4.20;1.93;;;;;;;8.57;82.29;99365.31;5075046;28;21007;-71
2020/12/07 05:49:15;;;;;;;3.10;2.90;;;;;;;8.61;82.11;99376.28;5074954;28;21021;-71
2020/12/07 05:51:45;;;;;;;2.43;1.60;;;;;;;8.56;82.16;99358.34;5075161;28;20850;-71
2020/12/07 05:54:13;;;;;;;1.90;1.53;;;;;;;8.52;82.30;99357.38;5075114;28;20489;-71
2020/12/07 05:56:43;;;;;;;1.60;1.50;;;;;;;8.56;82.20;99363.75;5075177;28;20469;-71
2020/12/07 05:59:19;;;;;;;1.43;1.30;;;;;;;8.58;81.74;99358.81;5075093;28;20516;-71
2020/12/07 06:01:49;;;;;;;1.23;0.97;;;;;;;8.61;81.47;99353.91;5075090;28;20490;-69
2020/12/07 06:04:15;;;;;;;11.73;3.77;;;;;;;8.56;81.54;99352.94;5074926;28;20510;-72
2020/12/07 06:06:44;;;;;;;1.10;0.73;;;;;;;8.46;81.89;99358.66;5074341;28;20492;-73
2020/12/07 06:09:18;;;;;;;0.70;0.70;;;;;;;8.45;81.82;99369.75;5074848;28;20434;-72
2020/12/07 06:11:50;;;;;;;2.53;1.10;;;;;;;8.51;81.51;99365.81;5075008;28;20474;-73
2020/12/07 06:14:16;;;;;;;1.30;1.23;;;;;;;8.44;81.63;99373.56;5074937;28;20469;-72
2020/12/07 06:16:43;;;;;;;5.63;1.90;;;;;;;8.43;81.60;99385.47;5074743;28;20433;-72
2020/12/07 06:19:14;;;;;;;1.33;1.27;;;;;;;8.43;81.15;99383.56;5074657;28;20426;-73
2020/12/07 06:21:48;;;;;;;4.53;2.57;;;;;;;8.40;81.78;99391.50;5074345;28;20795;-72
2020/12/07 06:24:14;;;;;;;2.17;1.97;;;;;;;8.40;81.19;99397.69;5074244;28;20468;-72
2020/12/07 06:26:41;;;;;;;5.83;0.83;;;;;;;8.35;80.94;99398.59;5074545;28;20472;-72
2020/12/07 06:29:07;;;;;;;2.80;1.23;;;;;;;8.32;81.25;99401.13;5074429;28;20441;-73
2020/12/07 06:31:36;;;;;;;1.33;1.00;;;;;;;8.28;81.45;99403.69;5074383;28;20929;-72
2020/12/07 06:34:10;;;;;;;3.23;1.60;;;;;;;8.16;81.66;99408.91;5074267;28;20507;-74
2020/12/07 06:36:39;;;;;;;0.90;0.90;;;;;;;8.11;82.11;99411.75;5074333;28;20506;-72
2020/12/07 06:39:07;;;;;;;1.40;0.90;;;;;;;8.13;81.78;99403.31;5073861;28;20442;-72
2020/12/07 06:41:36;;;;;;;0.83;0.73;;;;;;;8.15;82.50;99409.22;5074265;28;20473;-72
2020/12/07 06:44:06;;;;;;;3.80;1.17;;;;;;;8.11;82.57;99410.94;5074108;28;20457;-72
2020/12/07 06:46:47;;;;;;;2.90;1.83;;;;;;;8.14;82.65;99408.41;5074189;28;20514;-71
2020/12/07 06:49:14;;;;;;;1.23;0.60;;;;;;;8.14;82.69;99416.50;5073808;28;20461;-70
2020/12/07 06:51:43;;;;;;;0.50;0.40;;;;;;;8.15;82.79;99422.69;5073758;28;20481;-69
2020/12/07 06:55:04;;;;;;;1.07;1.00;;;;;;;8.14;82.92;99427.28;5073879;28;20465;-69
2020/12/07 06:57:25;;;;;;;1.57;1.23;;;;;;;8.06;82.92;99434.25;5073490;28;20440;-69
2020/12/07 07:00:00;;;;;;;0.70;0.63;;;;;;;8.11;82.96;99421.75;5073657;28;20956;-69
2020/12/07 07:02:26;;;;;;;1.57;1.10;;;;;;;8.03;83.04;99429.47;5073527;28;20479;-69
2020/12/07 07:04:54;;;;;;;0.50;0.40;;;;;;;8.06;82.87;99428.06;5073801;28;20437;-69
2020/12/07 07:07:22;;;;;;;1.33;1.00;;;;;;;8.09;82.74;99430.91;5073370;28;20996;-69
2020/12/07 07:09:49;;;;;;;0.80;0.80;;;;;;;8.07;82.98;99438.53;5073772;28;20437;-69
2020/12/07 07:12:16;;;;;;;4.07;2.73;;;;;;;8.06;82.96;99436.16;5073598;28;20516;-69
2020/12/07 07:14:43;;;;;;;1.83;1.70;;;;;;;8.08;83.06;99442.03;5073260;28;20974;-70
2020/12/07 07:17:09;;;;;;;0.80;0.40;;;;;;;8.03;82.66;99439.47;5073300;28;20950;-69
2020/12/07 07:19:36;;;;;;;0.83;0.70;;;;;;;7.99;82.33;99441.19;5073614;28;20433;-69
2020/12/07 07:22:02;;;;;;;7.33;2.43;;;;;;;7.93;82.36;99437.84;5073484;28;20487;-69
2020/12/07 07:24:36;;;;;;;2.00;1.23;;;;;;;7.97;82.62;99452.31;5074455;28;20465;-69
2020/12/07 07:27:55;;;;;;;1.80;1.23;;;;;;;7.94;82.12;99447.53;5073248;28;20822;-69
2020/12/07 07:29:50;;;;;;;0.63;0.60;;;;;;;7.91;82.44;99455.44;5073019;28;20433;-69
2020/12/07 07:32:17;;;;;;;1.67;0.83;;;;;;;7.89;82.29;99439.59;5072998;28;20480;-69
2020/12/07 07:34:44;;;;;;;1.50;1.03;;;;;;;7.92;82.63;99455.13;5073446;28;20219;-71
2020/12/07 07:37:11;;;;;;;0.77;0.47;;;;;;;7.77;83.30;99455.53;5073009;28;20429;-69
2020/12/07 07:39:39;;;;;;;2.40;2.20;;;;;;;7.80;83.46;99450.31;5073350;28;20524;-69
2020/12/07 07:42:09;;;;;;;0.90;0.60;;;;;;;7.90;83.10;99454.66;5073333;28;20920;-70
2020/12/07 07:44:36;;;;;;;0.90;0.90;;;;;;;7.89;83.09;99441.50;5073552;28;20528;-70
2020/12/07 07:47:06;;;;;;;3.70;2.37;;;;;;;7.90;83.22;99443.06;5073211;28;20494;-70
2020/12/07 07:49:52;;;;;;;0.70;0.70;;;;;;;7.89;83.15;99442.28;5073213;28;20449;-69
2020/12/07 08:06:01;;;;;;;9.00;2.13;;;;;;;7.92;83.01;99454.31;5074883;28;20453;-68
2020/12/07 08:17:49;;;;;;;1.03;0.67;;;;;;;7.90;83.46;99470.03;5077139;28;20475;-68
2020/12/07 08:20:16;;;;;;;1.80;1.43;;;;;;;7.91;82.28;99461.63;5076942;28;20437;-68
2020/12/07 08:22:54;;;;;;;1.03;1.03;;;;;;;7.87;83.08;99471.44;5076433;28;20437;-68
2020/12/07 08:25:20;;;;;;;2.03;1.70;;;;;;;7.91;83.10;99458.91;5076554;28;20456;-68
2020/12/07 08:27:47;;;;;;;1.53;1.43;;;;;;;7.94;83.09;99469.09;5076825;28;20502;-69
2020/12/07 08:30:14;;;;;;;1.27;1.17;;;;;;;7.95;83.38;99461.81;5074106;28;20437;-68
2020/12/07 08:32:40;;;;;;;1.03;0.90;;;;;;;7.99;83.31;99462.78;5056085;28;20446;-69
2020/12/07 08:35:11;;;;;;;3.10;2.40;;;;;;;8.04;82.99;99470.72;5056339;28;20474;-69
2020/12/07 08:37:41;;;;;;;1.40;1.30;;;;;;;8.05;82.90;99473.09;5056672;28;20466;-68
2020/12/07 08:40:07;;;;;;;1.33;1.23;;;;;;;8.06;83.35;99480.09;5056581;28;20422;-68
2020/12/07 08:42:34;;;;;;;1.27;1.17;;;;;;;8.11;82.99;99479.16;5056172;28;20978;-68
2020/12/07 08:45:01;;;;;;;2.40;1.70;;;;;;;8.20;82.73;99473.81;5056194;28;20939;-69
2020/12/07 08:47:27;;;;;;;2.00;1.07;;;;;;;8.26;82.61;99483.34;5056125;28;20442;-69
2020/12/07 08:49:53;;;;;;;0.87;0.87;;;;;;;8.19;82.75;99481.09;5056294;28;20809;-69
2020/12/07 08:52:19;;;;;;;3.43;2.80;;;;;;;8.21;82.44;99486.97;5056169;28;20506;-68
2020/12/07 08:54:45;;;;;;;1.67;1.43;;;;;;;8.27;82.52;99493.00;5056209;28;20568;-69
2020/12/07 08:57:11;;;;;;;5.10;1.57;;;;;;;8.25;82.69;99497.94;5056225;28;20438;-69
2020/12/07 08:59:37;;;;;;;1.17;1.10;;;;;;;8.25;83.00;99487.16;5056259;28;20442;-69
2020/12/07 09:02:04;;;;;;;1.50;0.93;;;;;;;8.32;82.51;99482.06;5056173;28;20501;-69
2020/12/07 09:04:31;;;;;;;2.30;1.37;;;;;;;8.37;82.45;99470.38;5056053;28;20512;-69
2020/12/07 09:06:57;;;;;;;1.63;1.50;;;;;;;8.35;82.25;99471.44;5056091;28;20492;-68
2020/12/07 09:09:23;;;;;;;1.10;1.07;;;;;;;8.32;82.27;99477.50;5056083;28;20488;-70
2020/12/07 09:11:49;;;;;;;4.53;2.30;;;;;;;8.41;82.21;99490.22;5056129;28;20930;-73
2020/12/07 09:14:15;;;;;;;1.37;1.23;;;;;;;8.43;81.93;99488.03;5055822;28;20462;-74
2020/12/07 09:16:42;;;;;;;0.60;0.60;;;;;;;8.43;81.92;99483.41;5055914;28;20496;-74
2020/12/07 09:19:09;;;;;;;1.30;1.17;;;;;;;8.48;81.90;99479.78;5055804;28;20444;-72
2020/12/07 09:21:35;;;;;;;1.47;1.00;;;;;;;8.52;81.87;99494.22;5055782;28;20449;-72
2020/12/07 09:24:01;;;;;;;0.80;0.60;;;;;;;8.53;81.96;99479.63;5055306;28;20473;-72
2020/12/07 09:26:28;;;;;;;4.83;3.33;;;;;;;8.56;82.03;99481.69;5055731;28;20443;-73
2020/12/07 09:28:54;;;;;;;0.97;0.90;;;;;;;8.50;82.07;99472.16;5055660;28;20474;-71
2020/12/07 09:31:20;;;;;;;2.10;1.50;;;;;;;8.54;82.08;99492.00;5055549;28;20513;-72
2020/12/07 09:33:47;;;;;;;1.90;1.30;;;;;;;8.60;81.95;99506.97;5055546;28;20486;-73
2020/12/07 09:36:14;;;;;;;1.57;1.27;;;;;;;8.58;82.03;99503.75;5055747;28;20442;-73
2020/12/07 09:38:40;;;;;;;4.30;1.73;;;;;;;8.64;81.71;99499.81;5055469;28;20507;-73
2020/12/07 09:41:07;;;;;;;0.67;0.67;;;;;;;8.66;81.97;99492.19;5055469;28;20466;-73
2020/12/07 09:43:34;;;;;;;0.67;0.67;;;;;;;8.65;81.86;99495.22;5055305;28;20462;-73
2020/12/07 09:46:00;;;;;;;2.80;1.57;;;;;;;8.67;81.80;99503.78;5055051;28;20943;-73
2020/12/07 09:48:26;;;;;;;5.43;1.80;;;;;;;8.66;81.51;99503.00;5055208;28;20434;-73
2020/12/07 09:50:52;;;;;;;2.50;1.17;;;;;;;8.61;81.83;99503.13;5055134;28;20518;-73
2020/12/07 09:53:19;;;;;;;7.40;2.13;;;;;;;8.55;81.94;99509.81;5054787;28;20462;-72
2020/12/07 09:55:46;;;;;;;0.80;0.77;;;;;;;8.58;81.73;99511.84;5054877;28;20492;-73
2020/12/07 09:58:12;;;;;;;1.00;0.93;;;;;;;8.62;81.92;99515.53;5054788;28;20446;-73
2020/12/07 10:00:39;;;;;;;4.33;1.70;;;;;;;8.64;81.84;99517.94;5055282;28;20439;-73
2020/12/07 10:03:05;;;;;;;2.00;0.90;;;;;;;8.66;81.82;99511.09;5054879;28;20509;-72
2020/12/07 10:05:31;;;;;;;10.70;1.80;;;;;;;8.64;81.57;99515.22;5055033;28;20496;-73
2020/12/07 10:07:57;;;;;;;2.57;2.20;;;;;;;8.68;81.62;99508.88;5054544;28;20438;-73
2020/12/07 10:10:24;;;;;;;1.90;1.33;;;;;;;8.65;81.05;99506.81;5054835;28;20439;-73
2020/12/07 10:12:50;;;;;;;0.83;0.80;;;;;;;8.58;81.18;99512.66;5054954;28;20490;-72
2020/12/07 10:15:16;;;;;;;1.47;0.93;;;;;;;8.47;82.17;99511.38;5054437;28;20543;-72
2020/12/07 10:17:42;;;;;;;3.80;0.90;;;;;;;8.52;82.26;99507.72;5054057;28;20438;-72
2020/12/07 10:20:09;;;;;;;1.37;1.27;;;;;;;8.60;81.71;99512.34;5054227;28;21005;-72
2020/12/07 10:22:35;;;;;;;2.03;1.40;;;;;;;8.62;81.71;99517.44;5054493;28;20446;-73
2020/12/07 10:25:01;;;;;;;1.63;0.90;;;;;;;8.51;81.34;99530.44;5053767;28;20969;-75
2020/12/07 10:27:28;;;;;;;5.90;3.13;;;;;;;8.49;81.85;99536.13;5054749;28;20872;-72
2020/12/07 10:29:54;;;;;;;1.30;1.13;;;;;;;8.57;81.74;99527.25;5054254;28;20435;-72
2020/12/07 10:32:20;;;;;;;3.33;1.30;;;;;;;8.59;82.21;99524.25;5054396;28;20561;-73
2020/12/07 10:34:46;;;;;;;3.27;2.13;;;;;;;8.63;82.29;99530.59;5054426;28;20455;-73
2020/12/07 10:37:15;;;;;;;13.63;3.27;;;;;;;8.65;82.58;99528.41;5054196;28;20438;-73
2020/12/07 10:39:41;;;;;;;0.83;0.80;;;;;;;8.67;82.50;99534.25;5054258;28;20446;-73
2020/12/07 10:42:07;;;;;;;7.13;1.77;;;;;;;8.73;82.31;99541.13;5053925;28;20868;-73
2020/12/07 10:44:34;;;;;;;2.73;1.77;;;;;;;8.77;82.46;99534.00;5054208;28;20462;-73
2020/12/07 10:47:00;;;;;;;1.53;1.43;;;;;;;8.81;82.00;99543.06;5053933;28;20928;-72
2020/12/07 10:49:26;;;;;;;7.30;1.77;;;;;;;8.85;82.07;99551.28;5053845;28;20473;-72
2020/12/07 10:51:53;;;;;;;5.53;2.63;;;;;;;8.82;82.35;99533.03;5054047;28;20839;-73
2020/12/07 10:54:19;;;;;;;2.33;1.73;;;;;;;8.82;82.36;99538.44;5054073;28;20462;-69
2020/12/07 10:56:45;;;;;;;1.23;1.13;;;;;;;8.78;82.42;99551.78;5062163;28;20828;-69
2020/12/07 10:59:11;;;;;;;1.30;1.20;;;;;;;8.84;82.18;99544.31;5074468;28;20441;-72
2020/12/07 11:01:38;;;;;;;2.97;1.20;;;;;;;8.80;82.61;99540.66;5073803;28;20482;-72
2020/12/07 11:04:05;;;;;;;7.00;4.53;;;;;;;8.80;82.81;99536.03;5073368;28;20894;-72
2020/12/07 11:06:33;;;;;;;4.50;1.07;;;;;;;8.84;82.50;99544.31;5073589;28;20433;-72
2020/12/07 11:09:04;;;;;;;0.80;0.63;;;;;;;8.85;82.22;99548.59;5073707;28;20445;-73
2020/12/07 11:11:30;;;;;;;1.43;1.33;;;;;;;8.83;82.19;99534.63;5073796;28;20469;-72
2020/12/07 11:13:57;;;;;;;1.67;1.27;;;;;;;8.77;82.10;99555.59;5073554;28;20558;-72
2020/12/07 11:16:24;;;;;;;2.40;2.10;;;;;;;8.80;82.51;99556.84;5073543;28;20543;-72
2020/12/07 11:18:51;;;;;;;2.90;1.10;;;;;;;8.81;82.35;99575.47;5073610;28;20437;-73
2020/12/07 11:21:17;;;;;;;1.73;1.60;;;;;;;8.84;82.12;99591.00;5073686;28;20434;-74
2020/12/07 11:23:46;;;;;;;2.67;2.47;;;;;;;8.87;81.88;99589.59;5073093;28;20473;-73
2020/12/07 11:26:13;;;;;;;2.13;1.93;;;;;;;8.91;81.76;99595.97;5073379;28;21005;-73
2020/12/07 11:28:40;;;;;;;0.57;0.57;;;;;;;8.88;82.37;99601.19;5073082;28;20526;-73
2020/12/07 11:31:09;;;;;;;1.70;1.23;;;;;;;8.88;81.95;99606.59;5073314;28;20481;-73
2020/12/07 11:33:35;;;;;;;0.63;0.50;;;;;;;8.87;81.94;99605.81;5073382;28;20457;-73
2020/12/07 11:36:02;;;;;;;1.63;1.20;;;;;;;8.84;82.42;99611.81;5073032;28;20445;-73
2020/12/07 11:38:32;;;;;;;0.50;0.47;;;;;;;8.87;83.08;99613.09;5072495;28;20441;-72
2020/12/07 11:41:14;;;;;;;1.37;0.77;;;;;;;8.81;83.95;99607.84;5073276;28;20469;-73
2020/12/07 11:43:46;;;;;;;1.43;1.33;;;;;;;8.80;84.24;99598.13;5073110;28;20461;-73
2020/12/07 11:46:16;;;;;;;4.10;1.80;;;;;;;8.78;84.24;99589.56;5072828;28;20451;-73
2020/12/07 11:48:43;;;;;;;1.60;1.20;;;;;;;8.80;84.37;99600.06;5073475;28;20487;-73
2020/12/07 11:51:10;;;;;;;3.83;2.13;;;;;;;8.71;85.44;99605.41;5073047;28;20534;-73
2020/12/07 11:53:36;;;;;;;2.00;1.17;;;;;;;8.74;85.36;99596.72;5073084;28;20461;-73
2020/12/07 11:56:02;;;;;;;9.07;2.53;;;;;;;8.79;85.17;99587.66;5072675;28;20930;-73
2020/12/07 11:58:28;;;;;;;1.57;1.07;;;;;;;8.76;84.25;99602.56;5072976;28;20429;-73
2020/12/07 12:00:54;;;;;;;1.93;1.83;;;;;;;8.81;84.28;99607.06;5073043;28;20938;-73
2020/12/07 12:03:20;;;;;;;3.03;1.53;;;;;;;8.78;83.70;99605.78;5072950;28;20465;-73
2020/12/07 12:05:47;;;;;;;2.57;0.80;;;;;;;8.72;83.65;99606.22;5073016;28;20473;-75
2020/12/07 12:08:14;;;;;;;6.23;2.23;;;;;;;8.66;83.55;99608.25;5072935;28;20473;-70